createdAt,value
2018-07-11T00:01:24.043Z,45.57
2018-07-11T00:03:54.492Z,44.37
2018-07-11T00:06:25.228Z,48.83
2018-07-11T00:08:54.790Z,51.87
2018-07-11T00:11:24.235Z,50.60
2018-07-11T00:13:54.438Z,48.67
2018-07-11T00:16:23.908Z,49.47
2018-07-11T00:18:53.789Z,51.00
2018-07-11T00:21:23.304Z,56.17
2018-07-11T00:23:52.776Z,64.97
2018-07-11T00:26:22.280Z,51.87
2018-07-11T00:28:51.818Z,47.97
2018-07-11T00:31:21.644Z,54.57
2018-07-11T00:33:51.122Z,60.80
2018-07-11T00:36:20.612Z,49.40
2018-07-11T00:38:50.080Z,52.23
2018-07-11T00:41:19.565Z,50.13
2018-07-11T00:43:49.211Z,39.80
2018-07-11T00:46:19.304Z,66.97
2018-07-11T00:48:49.313Z,50.20
2018-07-11T00:51:18.858Z,46.70
2018-07-11T00:53:49.083Z,54.77
2018-07-11T00:56:18.609Z,49.90
2018-07-11T00:58:57.335Z,61.77
2018-07-11T01:01:26.951Z,56.93
2018-07-11T01:04:00.209Z,50.60
2018-07-11T01:06:29.736Z,54.13
2018-07-11T01:09:00.079Z,44.80
2018-07-11T01:11:37.071Z,48.73
2018-07-11T01:14:06.619Z,52.87
2018-07-11T01:16:36.090Z,62.20
2018-07-11T01:19:09.203Z,58.50
2018-07-11T01:21:39.343Z,60.53
2018-07-11T01:24:08.958Z,51.07
2018-07-11T01:26:39.724Z,50.87
2018-07-11T01:29:09.870Z,54.70
2018-07-11T01:31:39.722Z,52.10
2018-07-11T01:34:09.645Z,58.47
2018-07-11T01:36:39.115Z,61.70
2018-07-11T01:39:08.318Z,55.33
2018-07-11T01:41:37.831Z,53.37
2018-07-11T01:44:07.510Z,57.87
2018-07-11T01:46:50.843Z,51.63
2018-07-11T01:49:20.322Z,62.77
2018-07-11T01:52:06.704Z,56.47
2018-07-11T01:54:36.929Z,61.87
2018-07-11T01:57:06.449Z,59.63
2018-07-11T01:59:37.639Z,57.13
2018-07-11T02:02:07.184Z,63.13
2018-07-11T02:04:40.031Z,56.87
2018-07-11T02:07:10.640Z,54.50
2018-07-11T02:09:40.438Z,69.20
2018-07-11T02:12:09.953Z,55.37
2018-07-11T02:14:39.611Z,63.80
2018-07-11T02:17:09.054Z,67.23
2018-07-11T02:19:39.043Z,59.93
2018-07-11T02:22:08.327Z,56.37
2018-07-11T02:24:37.849Z,63.60
2018-07-11T02:27:07.845Z,65.33
2018-07-11T02:29:37.502Z,66.57
2018-07-11T02:32:07.114Z,66.10
2018-07-11T02:34:36.597Z,61.07
2018-07-11T02:37:06.454Z,60.53
2018-07-11T02:39:35.939Z,57.63
2018-07-11T02:42:05.758Z,68.10
2018-07-11T02:44:35.305Z,56.80
2018-07-11T02:47:10.062Z,64.47
2018-07-11T02:49:39.591Z,62.77
2018-07-11T02:52:09.418Z,59.33
2018-07-11T02:54:39.193Z,66.57
2018-07-11T02:57:08.712Z,57.73
2018-07-11T02:59:38.230Z,56.50
2018-07-11T03:02:07.784Z,59.60
2018-07-11T03:04:37.444Z,59.37
2018-07-11T03:07:07.873Z,50.80
2018-07-11T03:09:37.446Z,58.13
2018-07-11T03:12:07.593Z,54.73
2018-07-11T03:14:42.961Z,58.90
2018-07-11T03:17:12.520Z,57.40
2018-07-11T03:19:41.988Z,54.00
2018-07-11T03:22:11.547Z,68.30
2018-07-11T03:24:41.294Z,59.10
2018-07-11T03:27:10.743Z,55.53
2018-07-11T03:29:40.304Z,54.30
2018-07-11T03:32:09.866Z,59.13
2018-07-11T03:34:39.397Z,63.00
2018-07-11T03:37:08.896Z,62.70
2018-07-11T03:39:40.218Z,52.43
2018-07-11T03:42:09.768Z,53.37
2018-07-11T03:44:39.278Z,65.30
2018-07-11T03:47:08.740Z,56.47
2018-07-11T03:49:38.923Z,56.20
2018-07-11T03:52:08.500Z,56.63
2018-07-11T03:54:38.296Z,47.07
2018-07-11T03:57:08.175Z,62.53
2018-07-11T03:59:37.734Z,53.50
2018-07-11T04:02:07.890Z,49.37
2018-07-11T04:04:37.583Z,48.93
2018-07-11T04:07:07.032Z,41.50
2018-07-11T04:09:36.782Z,49.83
2018-07-11T04:12:06.294Z,44.93
2018-07-11T04:14:35.804Z,36.77
2018-07-11T04:17:05.330Z,42.90
2018-07-11T04:19:34.812Z,43.27
2018-07-11T04:22:04.256Z,41.50
2018-07-11T04:24:33.826Z,43.00
2018-07-11T04:27:03.324Z,39.20
2018-07-11T04:29:32.786Z,33.23
2018-07-11T04:32:02.265Z,38.57
2018-07-11T04:34:31.786Z,41.03
2018-07-11T04:37:01.217Z,33.60
2018-07-11T04:39:30.744Z,36.10
2018-07-11T04:42:00.255Z,32.20
2018-07-11T04:44:29.981Z,35.27
2018-07-11T04:46:59.448Z,32.13
2018-07-11T04:49:28.938Z,33.20
2018-07-11T04:51:58.112Z,36.67
2018-07-11T04:54:28.406Z,33.30
2018-07-11T04:56:58.010Z,30.70
2018-07-11T04:59:27.519Z,27.10
2018-07-11T05:01:56.994Z,24.20
2018-07-11T05:04:26.495Z,29.70
2018-07-11T05:06:55.935Z,28.50
2018-07-11T05:09:25.446Z,25.40
2018-07-11T05:11:55.003Z,29.80
2018-07-11T05:14:24.515Z,28.90
2018-07-11T05:16:54.022Z,23.77
2018-07-11T05:19:23.620Z,22.70
2018-07-11T05:21:53.244Z,27.73
2018-07-11T05:24:22.730Z,24.93
2018-07-11T05:26:52.244Z,26.07
2018-07-11T05:29:21.808Z,18.57
2018-07-11T05:31:51.310Z,23.60
2018-07-11T05:34:21.000Z,20.80
2018-07-11T05:36:50.501Z,20.37
2018-07-11T05:39:19.971Z,28.27
2018-07-11T05:41:49.479Z,18.77
2018-07-11T05:44:18.940Z,15.80
2018-07-11T05:46:48.420Z,15.67
2018-07-11T05:49:17.872Z,23.53
2018-07-11T05:51:47.345Z,18.60
2018-07-11T05:54:17.454Z,15.97
2018-07-11T05:56:49.159Z,23.10
2018-07-11T05:59:18.781Z,11.93
2018-07-11T06:01:48.304Z,15.37
2018-07-11T06:04:17.845Z,19.33
2018-07-11T06:06:47.380Z,18.63
2018-07-11T06:09:17.274Z,18.70
2018-07-11T06:11:46.777Z,16.90
2018-07-11T06:14:16.181Z,15.70
2018-07-11T06:16:45.571Z,15.57
2018-07-11T06:19:15.072Z,10.33
2018-07-11T06:21:47.874Z,15.27
2018-07-11T06:24:17.912Z,9.13
2018-07-11T06:26:47.418Z,10.37
2018-07-11T06:29:16.933Z,15.30
2018-07-11T06:31:46.350Z,7.63
2018-07-11T06:34:16.351Z,11.33
2018-07-11T06:36:45.822Z,12.83
2018-07-11T06:39:15.060Z,7.40
2018-07-11T06:41:44.470Z,8.00
2018-07-11T06:44:13.915Z,12.10
2018-07-11T06:46:43.376Z,11.73
2018-07-11T06:49:12.778Z,7.90
2018-07-11T06:51:42.361Z,8.27
2018-07-11T06:54:11.850Z,7.37
2018-07-11T06:56:41.420Z,9.33
2018-07-11T06:59:10.876Z,8.57
2018-07-11T07:01:40.302Z,7.30
2018-07-11T07:04:10.537Z,8.43
2018-07-11T07:06:39.957Z,6.20
2018-07-11T07:09:09.356Z,9.73
2018-07-11T07:11:38.946Z,6.07
2018-07-11T07:14:08.429Z,10.27
2018-07-11T07:16:38.004Z,8.97
2018-07-11T07:19:07.353Z,6.23
2018-07-11T07:21:37.802Z,9.20
2018-07-11T07:24:09.044Z,8.17
2018-07-11T07:26:38.452Z,6.70
2018-07-11T07:29:07.877Z,7.10
2018-07-11T07:31:37.291Z,5.77
2018-07-11T07:34:06.549Z,7.10
2018-07-11T07:36:36.108Z,6.73
2018-07-11T07:39:05.873Z,5.77
2018-07-11T07:41:35.616Z,5.80
2018-07-11T07:44:05.084Z,5.90
2018-07-11T07:46:34.525Z,4.63
2018-07-11T07:49:03.983Z,6.90
2018-07-11T07:51:33.614Z,6.30
2018-07-11T07:54:03.034Z,5.03
2018-07-11T07:56:32.445Z,6.87
2018-07-11T07:59:02.121Z,4.07
2018-07-11T08:01:31.603Z,7.37
2018-07-11T08:04:01.012Z,5.27
2018-07-11T08:06:30.438Z,6.30
2018-07-11T08:08:59.940Z,5.90
2018-07-11T08:11:29.410Z,4.77
2018-07-11T08:13:58.829Z,10.63
2018-07-11T08:16:28.268Z,5.03
2018-07-11T08:18:57.730Z,6.57
2018-07-11T08:21:27.216Z,7.43
2018-07-11T08:24:13.852Z,13.40
2018-07-11T08:27:01.938Z,4.77
2018-07-11T08:29:48.524Z,5.87
2018-07-11T08:33:35.825Z,5.00
2018-07-11T08:36:35.767Z,6.43
2018-07-11T08:39:38.375Z,6.63
2018-07-11T08:44:48.557Z,6.37
2018-07-11T08:47:39.039Z,6.43
2018-07-11T08:50:36.022Z,9.90
2018-07-11T08:55:42.383Z,6.97
2018-07-11T09:00:43.090Z,6.50
2018-07-11T09:03:54.356Z,9.27
2018-07-11T09:06:39.140Z,8.07
2018-07-11T09:09:56.342Z,5.50
2018-07-11T09:14:46.542Z,7.87
2018-07-11T09:19:04.858Z,4.70
2018-07-11T09:24:11.990Z,6.03
2018-07-11T09:26:41.375Z,4.97
